createdAt,value
2019-05-06T00:00:59.542Z,1.22
2019-05-06T00:03:30.760Z,1.22
2019-05-06T00:06:03.914Z,1.21
2019-05-06T00:08:34.744Z,1.13
2019-05-06T00:11:06.003Z,1.07
2019-05-06T00:13:37.055Z,0.99
2019-05-06T00:16:08.314Z,0.88
2019-05-06T00:18:39.439Z,0.74
2019-05-06T00:21:10.821Z,0.74
2019-05-06T00:23:46.225Z,0.75
2019-05-06T00:26:24.235Z,0.74
2019-05-06T00:28:56.299Z,0.65
2019-05-06T00:31:27.456Z,0.51
2019-05-06T00:33:58.710Z,0.41
2019-05-06T00:36:28.887Z,0.35
2019-05-06T00:39:01.749Z,0.30
2019-05-06T00:41:36.708Z,0.20
2019-05-06T00:44:07.823Z,0.09
2019-05-06T00:46:38.800Z,0.12
2019-05-06T00:49:10.017Z,0.05
2019-05-06T00:51:41.017Z,0.03
2019-05-06T00:54:28.949Z,0.06
2019-05-06T00:56:59.935Z,0.05
2019-05-06T00:59:30.976Z,-0.05
2019-05-06T01:02:04.467Z,-0.14
2019-05-06T01:04:35.117Z,-0.11
2019-05-06T01:07:06.150Z,-0.01
2019-05-06T01:09:37.582Z,-0.08
2019-05-06T01:12:10.290Z,-0.15
2019-05-06T01:14:45.031Z,-0.18
2019-05-06T01:17:16.257Z,-0.25
2019-05-06T01:19:47.230Z,-0.33
2019-05-06T01:22:18.312Z,-0.35
2019-05-06T01:24:49.183Z,-0.29
2019-05-06T01:27:20.337Z,-0.36
2019-05-06T01:29:51.461Z,-0.40
2019-05-06T01:32:23.646Z,-0.31
2019-05-06T01:34:54.697Z,-0.24
2019-05-06T01:37:27.624Z,-0.11
2019-05-06T01:40:00.269Z,-0.13
2019-05-06T01:42:47.864Z,-0.18
2019-05-06T01:45:18.786Z,-0.23
2019-05-06T01:47:49.799Z,-0.31
2019-05-06T01:50:20.850Z,-0.37
2019-05-06T01:52:50.884Z,-0.45
2019-05-06T01:55:23.751Z,-0.54
2019-05-06T01:57:54.695Z,-0.62
2019-05-06T02:00:25.874Z,-0.71
2019-05-06T02:02:56.824Z,-0.77
2019-05-06T02:05:27.980Z,-0.76
2019-05-06T02:07:58.871Z,-0.52
2019-05-06T02:10:29.952Z,-0.35
2019-05-06T02:13:00.838Z,-0.30
2019-05-06T02:15:31.980Z,-0.32
2019-05-06T02:18:04.071Z,-0.35
2019-05-06T02:20:37.197Z,-0.40
2019-05-06T02:23:09.816Z,-0.41
2019-05-06T02:25:44.698Z,-0.36
2019-05-06T02:28:15.698Z,-0.24
2019-05-06T02:30:50.203Z,-0.15
2019-05-06T02:33:37.964Z,-0.14
2019-05-06T02:36:16.176Z,-0.19
2019-05-06T02:38:51.430Z,-0.28
2019-05-06T02:41:23.072Z,-0.40
2019-05-06T02:43:54.235Z,-0.58
2019-05-06T02:46:25.405Z,-0.71
2019-05-06T02:48:58.180Z,-0.82
2019-05-06T02:51:29.090Z,-0.93
2019-05-06T02:54:03.042Z,-1.05
2019-05-06T02:56:33.440Z,-1.09
2019-05-06T02:59:04.838Z,-1.06
2019-05-06T03:01:35.813Z,-1.02
2019-05-06T03:04:07.061Z,-1.03
2019-05-06T03:06:38.037Z,-1.08
2019-05-06T03:09:08.113Z,-1.15
2019-05-06T03:11:39.203Z,-1.20
2019-05-06T03:14:10.116Z,-1.14
2019-05-06T03:16:43.904Z,-0.93
2019-05-06T03:19:13.877Z,-0.90
2019-05-06T03:21:46.754Z,-0.84
2019-05-06T03:24:19.241Z,-0.83
2019-05-06T03:26:56.142Z,-0.80
2019-05-06T03:29:25.425Z,-0.79
2019-05-06T03:31:57.566Z,-0.75
2019-05-06T03:34:52.933Z,-0.71
2019-05-06T03:37:06.504Z,-0.71
2019-05-06T03:39:34.493Z,-0.69
2019-05-06T03:42:05.804Z,-0.67
2019-05-06T03:44:38.359Z,-0.66
2019-05-06T03:47:16.128Z,-0.71
2019-05-06T03:49:50.072Z,-0.71
2019-05-06T03:52:23.200Z,-0.71
2019-05-06T03:54:55.922Z,-0.72
2019-05-06T03:57:28.812Z,-0.74
2019-05-06T04:00:04.277Z,-0.76
2019-05-06T04:02:33.804Z,-0.74
2019-05-06T04:05:06.245Z,-0.72
2019-05-06T04:07:37.628Z,-0.66
2019-05-06T04:10:09.207Z,-0.59
2019-05-06T04:12:43.324Z,-0.55
2019-05-06T04:15:14.533Z,-0.50
2019-05-06T04:17:47.244Z,-0.47
2019-05-06T04:20:23.628Z,-0.40
2019-05-06T04:23:14.549Z,-0.34
2019-05-06T04:26:03.826Z,-0.32
2019-05-06T04:28:36.853Z,-0.26
2019-05-06T04:31:07.961Z,-0.25
2019-05-06T04:33:39.011Z,-0.23
2019-05-06T04:36:09.246Z,-0.19
2019-05-06T04:38:43.343Z,-0.14
2019-05-06T04:41:13.795Z,-0.09
2019-05-06T04:43:45.338Z,-0.05
2019-05-06T04:46:16.875Z,0.04
2019-05-06T04:48:48.420Z,0.12
2019-05-06T04:51:20.606Z,0.18
2019-05-06T04:53:53.740Z,0.28
2019-05-06T04:56:24.575Z,0.34
2019-05-06T04:58:55.925Z,0.42
2019-05-06T05:01:26.917Z,0.50
2019-05-06T05:03:58.165Z,0.55
2019-05-06T05:06:29.113Z,0.63
2019-05-06T05:09:02.581Z,0.72
2019-05-06T05:11:34.994Z,0.82
2019-05-06T05:14:09.209Z,0.94
2019-05-06T05:16:45.021Z,1.07
2019-05-06T05:19:17.235Z,1.10
2019-05-06T05:21:48.421Z,1.09
2019-05-06T05:24:19.799Z,1.06
2019-05-06T05:26:52.277Z,1.04
2019-05-06T05:29:23.350Z,1.04
2019-05-06T05:31:54.985Z,1.06
2019-05-06T05:34:37.230Z,1.17
2019-05-06T05:36:58.949Z,1.22
2019-05-06T05:39:29.883Z,1.23
2019-05-06T05:42:03.014Z,1.23
2019-05-06T05:44:43.118Z,1.25
2019-05-06T05:47:14.382Z,1.28
2019-05-06T05:50:03.010Z,1.35
2019-05-06T05:52:34.532Z,1.38
2019-05-06T05:55:05.856Z,1.56
2019-05-06T05:57:36.046Z,2.00
2019-05-06T06:00:07.502Z,3.84
2019-05-06T06:02:38.452Z,3.76
2019-05-06T06:05:09.993Z,4.24
2019-05-06T06:07:42.241Z,5.10
2019-05-06T06:10:24.199Z,5.74
2019-05-06T06:12:55.538Z,7.79
2019-05-06T06:15:28.378Z,9.84
2019-05-06T06:18:17.442Z,11.37
2019-05-06T06:20:56.361Z,11.48
2019-05-06T06:23:32.445Z,11.98
2019-05-06T06:26:04.171Z,12.41
2019-05-06T06:28:35.955Z,11.74
2019-05-06T06:31:08.910Z,10.99
2019-05-06T06:33:42.569Z,11.67
2019-05-06T06:36:17.554Z,12.22
2019-05-06T06:38:53.404Z,11.76
2019-05-06T06:41:23.731Z,10.86
2019-05-06T06:43:56.414Z,11.16
2019-05-06T06:46:27.574Z,9.81
2019-05-06T06:48:58.998Z,9.26
2019-05-06T06:51:32.907Z,8.97
2019-05-06T06:54:03.171Z,9.61
2019-05-06T06:56:38.518Z,10.77
2019-05-06T06:59:27.842Z,11.23
2019-05-06T07:02:12.049Z,10.98
2019-05-06T07:04:47.362Z,11.19
2019-05-06T07:07:20.090Z,11.17
2019-05-06T07:09:52.623Z,11.17
2019-05-06T07:12:23.701Z,10.43
2019-05-06T07:15:02.302Z,10.07
2019-05-06T07:17:33.618Z,10.46
2019-05-06T07:20:07.964Z,10.99
2019-05-06T07:22:39.007Z,11.27
2019-05-06T07:25:12.676Z,10.91
2019-05-06T07:27:43.352Z,10.92
2019-05-06T07:30:13.828Z,11.09
2019-05-06T07:32:45.030Z,11.26
2019-05-06T07:35:16.039Z,11.04
2019-05-06T07:37:47.197Z,11.07
2019-05-06T07:40:18.438Z,10.99
2019-05-06T07:42:52.707Z,10.78
2019-05-06T07:45:25.510Z,10.49
2019-05-06T07:50:49.308Z,10.36
2019-05-06T07:53:22.370Z,10.89
2019-05-06T07:55:53.073Z,11.23
2019-05-06T07:58:24.370Z,11.59
2019-05-06T08:00:55.238Z,11.79
2019-05-06T08:03:29.516Z,11.97
2019-05-06T08:06:02.528Z,12.07
2019-05-06T08:08:33.454Z,11.89
2019-05-06T08:11:05.114Z,11.95
2019-05-06T08:13:36.094Z,11.53
2019-05-06T08:16:07.903Z,11.68
2019-05-06T08:18:38.899Z,11.98
2019-05-06T08:21:15.148Z,11.97
2019-05-06T08:23:47.831Z,12.41
2019-05-06T08:26:18.967Z,12.29
2019-05-06T08:28:52.385Z,12.20
2019-05-06T08:31:23.250Z,11.51
2019-05-06T08:33:54.424Z,10.98
2019-05-06T08:36:27.241Z,10.70
2019-05-06T08:39:02.916Z,10.11
2019-05-06T08:41:34.169Z,9.75
2019-05-06T08:44:05.399Z,9.71
2019-05-06T08:46:35.553Z,9.98
2019-05-06T08:49:06.947Z,10.20
2019-05-06T08:51:42.410Z,10.06
2019-05-06T08:54:32.462Z,10.36
2019-05-06T08:57:03.533Z,10.55
2019-05-06T08:59:34.964Z,10.26
2019-05-06T09:02:07.415Z,10.36
2019-05-06T09:04:38.575Z,10.40
2019-05-06T09:07:09.557Z,10.41
2019-05-06T09:09:42.137Z,10.18
2019-05-06T09:12:13.485Z,10.04
2019-05-06T09:14:44.685Z,10.37
2019-05-06T09:17:15.900Z,10.19
2019-05-06T09:19:47.042Z,10.13
2019-05-06T09:22:18.270Z,9.95
2019-05-06T09:24:48.421Z,9.87
2019-05-06T09:27:22.609Z,10.07
2019-05-06T09:29:54.393Z,10.21
2019-05-06T09:32:27.162Z,10.24
2019-05-06T09:34:59.158Z,10.82
2019-05-06T09:37:32.504Z,11.44
2019-05-06T09:40:03.188Z,11.27
2019-05-06T09:42:34.356Z,11.31
2019-05-06T09:45:09.395Z,11.58
2019-05-06T09:47:42.596Z,11.83
2019-05-06T09:50:17.119Z,12.34
2019-05-06T09:52:48.419Z,12.61
2019-05-06T09:55:27.204Z,12.88
2019-05-06T09:57:59.924Z,13.28
2019-05-06T10:00:33.151Z,13.75
2019-05-06T10:03:03.836Z,13.37
2019-05-06T10:05:35.202Z,13.31
2019-05-06T10:08:06.281Z,13.17
2019-05-06T10:10:37.597Z,13.14
2019-05-06T10:13:08.781Z,12.82
2019-05-06T10:15:42.625Z,12.49
2019-05-06T10:18:13.584Z,13.09
2019-05-06T10:20:46.811Z,13.94
2019-05-06T10:23:17.981Z,15.22
2019-05-06T10:25:49.231Z,15.35
2019-05-06T10:28:23.271Z,15.95
2019-05-06T10:30:54.939Z,16.89
2019-05-06T10:33:27.620Z,15.50
2019-05-06T10:36:05.275Z,15.77
2019-05-06T10:38:45.312Z,16.13
2019-05-06T10:41:19.588Z,16.67
2019-05-06T10:44:22.817Z,18.21
2019-05-06T10:46:54.440Z,18.81
2019-05-06T10:49:25.811Z,18.00
2019-05-06T10:52:02.213Z,17.44
2019-05-06T10:54:33.284Z,17.20
2019-05-06T10:57:05.895Z,15.58
2019-05-06T10:59:37.162Z,16.31
2019-05-06T11:02:10.077Z,16.45
2019-05-06T11:04:42.632Z,16.70
2019-05-06T11:07:28.177Z,16.83
2019-05-06T11:09:46.506Z,18.19
2019-05-06T11:12:17.851Z,19.16
2019-05-06T11:14:48.998Z,18.29
2019-05-06T11:17:20.050Z,17.36
2019-05-06T11:19:53.140Z,16.72
2019-05-06T11:22:24.790Z,16.10
2019-05-06T11:24:55.967Z,17.55
2019-05-06T11:27:32.037Z,18.06
2019-05-06T11:30:02.298Z,18.74
2019-05-06T11:32:44.568Z,16.28
2019-05-06T11:35:33.831Z,16.22
2019-05-06T11:38:12.578Z,14.95
2019-05-06T11:40:42.691Z,14.94
2019-05-06T11:43:13.769Z,14.50
2019-05-06T11:45:44.702Z,14.00
2019-05-06T11:48:15.949Z,13.11
2019-05-06T11:50:48.749Z,12.50
2019-05-06T11:53:19.916Z,11.57
2019-05-06T11:55:54.410Z,11.32
2019-05-06T11:58:43.099Z,11.23
2019-05-06T12:01:18.490Z,10.90
2019-05-06T12:03:52.951Z,10.76
2019-05-06T12:06:24.044Z,10.65
2019-05-06T12:08:55.576Z,10.63
2019-05-06T12:11:26.759Z,10.77
2019-05-06T12:13:57.984Z,10.74
2019-05-06T12:16:29.017Z,10.91
2019-05-06T12:19:02.860Z,10.93
2019-05-06T12:21:34.259Z,11.06
2019-05-06T12:24:05.400Z,11.05
2019-05-06T12:26:38.465Z,11.13
2019-05-06T12:29:12.821Z,11.16
2019-05-06T12:31:44.969Z,11.33
2019-05-06T12:34:15.974Z,11.64
2019-05-06T12:36:48.791Z,11.56
2019-05-06T12:39:23.070Z,11.65
2019-05-06T12:41:55.688Z,12.06
2019-05-06T12:44:26.783Z,12.07
2019-05-06T12:47:05.301Z,12.97
2019-05-06T12:49:48.902Z,13.20
2019-05-06T12:52:20.136Z,12.59
2019-05-06T12:54:54.183Z,12.54
2019-05-06T12:57:24.087Z,12.40
2019-05-06T12:59:55.195Z,11.99
2019-05-06T13:02:25.414Z,11.68
2019-05-06T13:05:00.667Z,11.34
2019-05-06T13:07:32.449Z,11.17
2019-05-06T13:10:06.101Z,10.90
2019-05-06T13:12:38.879Z,10.76
2019-05-06T13:15:12.865Z,10.78
2019-05-06T13:17:43.277Z,10.75
2019-05-06T13:20:14.993Z,10.79
2019-05-06T13:22:53.496Z,10.91
2019-05-06T13:25:23.610Z,11.06
2019-05-06T13:27:54.555Z,11.23
2019-05-06T13:30:26.361Z,11.21
2019-05-06T13:33:15.353Z,11.38
2019-05-06T13:35:46.613Z,11.65
2019-05-06T13:38:17.460Z,11.56
2019-05-06T13:40:54.948Z,11.77
2019-05-06T13:43:23.494Z,12.07
2019-05-06T13:46:03.528Z,12.56
2019-05-06T13:48:37.365Z,12.89
2019-05-06T13:51:25.229Z,12.99
2019-05-06T13:53:56.861Z,13.63
2019-05-06T13:56:28.062Z,14.25
2019-05-06T13:58:59.306Z,14.12
2019-05-06T14:01:32.174Z,13.95
2019-05-06T14:04:03.808Z,14.03
2019-05-06T14:06:35.002Z,14.02
2019-05-06T14:09:07.849Z,14.40
2019-05-06T14:11:38.913Z,14.23
2019-05-06T14:14:12.486Z,13.55
2019-05-06T14:16:42.931Z,13.94
2019-05-06T14:19:14.134Z,13.73
2019-05-06T14:21:45.071Z,14.05
2019-05-06T14:24:17.373Z,13.85
2019-05-06T14:26:57.587Z,14.10
2019-05-06T14:29:27.431Z,13.89
2019-05-06T14:31:59.567Z,13.54
2019-05-06T14:34:32.449Z,14.54
2019-05-06T14:37:03.371Z,13.98
2019-05-06T14:39:53.391Z,12.97
2019-05-06T14:42:14.932Z,12.89
2019-05-06T14:44:45.952Z,12.48
2019-05-06T14:47:18.887Z,12.48
2019-05-06T14:49:49.768Z,12.52
2019-05-06T14:52:22.621Z,12.94
2019-05-06T14:54:55.682Z,13.06
2019-05-06T14:57:26.851Z,13.34
2019-05-06T14:59:57.865Z,14.01
2019-05-06T15:02:28.479Z,14.17
2019-05-06T15:04:59.676Z,14.55
2019-05-06T15:07:32.759Z,15.46
2019-05-06T15:10:19.081Z,15.98
2019-05-06T15:12:36.452Z,17.02
2019-05-06T15:15:07.957Z,17.16
2019-05-06T15:17:39.034Z,16.00
2019-05-06T15:20:12.126Z,15.47
2019-05-06T15:22:43.379Z,14.34
2019-05-06T15:25:14.669Z,13.39
2019-05-06T15:27:45.656Z,12.87
2019-05-06T15:30:33.487Z,12.48
2019-05-06T15:33:05.200Z,11.97
2019-05-06T15:35:56.516Z,11.47
2019-05-06T15:38:29.144Z,11.36
2019-05-06T15:41:00.442Z,11.23
2019-05-06T15:43:33.364Z,11.15
2019-05-06T15:46:04.945Z,10.70
2019-05-06T15:48:35.924Z,10.61
2019-05-06T15:51:06.085Z,10.62
2019-05-06T15:53:37.230Z,10.41
2019-05-06T15:56:08.242Z,10.37
2019-05-06T15:58:39.408Z,10.30
2019-05-06T16:01:10.456Z,10.25
2019-05-06T16:03:43.111Z,10.33
2019-05-06T16:06:14.354Z,10.41
2019-05-06T16:08:46.031Z,10.37
2019-05-06T16:11:17.194Z,10.28
2019-05-06T16:13:48.330Z,10.34
2019-05-06T16:16:19.383Z,10.26
2019-05-06T16:18:50.623Z,10.27
2019-05-06T16:21:23.026Z,10.27
2019-05-06T16:23:55.090Z,10.33
2019-05-06T16:26:26.260Z,10.37
2019-05-06T16:28:57.159Z,10.43
2019-05-06T16:31:28.423Z,10.40
2019-05-06T16:33:59.378Z,10.45
2019-05-06T16:36:32.407Z,10.51
2019-05-06T16:39:07.205Z,10.58
2019-05-06T16:41:38.511Z,10.54
2019-05-06T16:44:09.584Z,10.53
2019-05-06T16:46:42.678Z,10.39
2019-05-06T16:49:14.285Z,10.38
2019-05-06T16:51:45.617Z,10.20
2019-05-06T16:54:16.627Z,10.14
2019-05-06T16:57:02.309Z,10.05
2019-05-06T16:59:33.593Z,10.06
2019-05-06T17:02:05.568Z,10.00
2019-05-06T17:04:52.533Z,9.99
2019-05-06T17:07:22.397Z,10.01
2019-05-06T17:09:53.807Z,10.04
2019-05-06T17:12:24.742Z,10.05
2019-05-06T17:14:55.855Z,10.06
2019-05-06T17:17:39.641Z,10.11
2019-05-06T17:19:59.815Z,10.10
2019-05-06T17:22:32.595Z,10.10
2019-05-06T17:25:03.914Z,10.13
2019-05-06T17:27:36.245Z,10.14
2019-05-06T17:30:13.591Z,10.11
2019-05-06T17:32:46.212Z,10.04
2019-05-06T17:35:17.554Z,10.02
2019-05-06T17:37:50.072Z,9.94
2019-05-06T17:40:23.009Z,9.90
2019-05-06T17:42:54.323Z,9.91
2019-05-06T17:45:43.039Z,9.91
2019-05-06T17:48:16.349Z,9.84
2019-05-06T17:51:13.738Z,9.76
2019-05-06T17:53:48.879Z,9.74
2019-05-06T17:56:19.044Z,9.74
2019-05-06T17:58:50.374Z,9.71
2019-05-06T18:01:23.360Z,9.66
2019-05-06T18:03:54.765Z,9.64
2019-05-06T18:06:25.861Z,9.59
2019-05-06T18:08:57.016Z,9.57
2019-05-06T18:11:28.241Z,9.54
2019-05-06T18:13:59.598Z,9.54
2019-05-06T18:16:32.994Z,9.51
2019-05-06T18:19:04.000Z,9.49
2019-05-06T18:21:35.179Z,9.47
2019-05-06T18:24:09.696Z,9.39
2019-05-06T18:26:39.541Z,9.35
2019-05-06T18:29:09.971Z,9.31
2019-05-06T18:31:42.773Z,9.26
2019-05-06T18:34:13.908Z,9.21
2019-05-06T18:36:45.032Z,9.13
2019-05-06T18:39:16.031Z,9.06
2019-05-06T18:41:47.211Z,9.02
2019-05-06T18:44:18.234Z,8.96
2019-05-06T18:46:49.421Z,8.92
2019-05-06T18:49:22.356Z,8.86
2019-05-06T18:51:54.278Z,8.79
2019-05-06T18:54:25.909Z,8.73
2019-05-06T18:56:57.562Z,8.70
2019-05-06T18:59:28.779Z,8.65
2019-05-06T19:01:59.103Z,8.60
2019-05-06T19:04:34.857Z,8.55
2019-05-06T19:07:12.689Z,8.47
2019-05-06T19:09:42.589Z,8.43
2019-05-06T19:12:28.391Z,8.37
2019-05-06T19:14:47.100Z,8.34
2019-05-06T19:17:22.494Z,8.30
2019-05-06T19:19:54.150Z,8.34
2019-05-06T19:22:25.242Z,8.30
2019-05-06T19:24:56.796Z,8.28
2019-05-06T19:27:28.019Z,8.24
2019-05-06T19:29:59.370Z,8.19
2019-05-06T19:32:34.286Z,8.07
2019-05-06T19:35:04.642Z,8.05
2019-05-06T19:37:35.609Z,8.01
2019-05-06T19:40:06.716Z,7.97
2019-05-06T19:42:47.196Z,7.92
2019-05-06T19:45:09.873Z,7.87
2019-05-06T19:47:42.495Z,7.83
2019-05-06T19:50:13.894Z,7.82
2019-05-06T19:52:45.214Z,7.85
2019-05-06T19:55:16.539Z,7.90
2019-05-06T19:57:47.811Z,7.88
2019-05-06T20:00:20.060Z,7.87
2019-05-06T20:02:52.166Z,7.85
2019-05-06T20:05:25.186Z,7.90
2019-05-06T20:08:16.334Z,7.92
2019-05-06T20:10:56.192Z,7.92
2019-05-06T20:13:27.753Z,7.88
2019-05-06T20:16:02.827Z,7.78
2019-05-06T20:18:34.418Z,7.60
2019-05-06T20:21:05.698Z,7.41
2019-05-06T20:23:35.827Z,7.25
2019-05-06T20:26:06.930Z,7.10
2019-05-06T20:28:37.824Z,6.98
2019-05-06T20:31:09.059Z,6.87
2019-05-06T20:33:42.055Z,6.80
2019-05-06T20:36:12.844Z,6.71
2019-05-06T20:38:43.805Z,6.63
2019-05-06T20:41:14.945Z,6.62
2019-05-06T20:43:45.917Z,6.60
2019-05-06T20:46:17.070Z,6.46
2019-05-06T20:48:48.048Z,6.47
2019-05-06T20:51:19.108Z,6.40
2019-05-06T20:53:50.128Z,6.32
2019-05-06T20:56:22.372Z,6.20
2019-05-06T20:58:53.413Z,6.09
2019-05-06T21:01:23.708Z,6.04
2019-05-06T21:03:54.931Z,6.00
2019-05-06T21:06:25.872Z,5.95
2019-05-06T21:08:57.067Z,5.94
2019-05-06T21:11:29.296Z,5.96
2019-05-06T21:14:02.273Z,5.96
2019-05-06T21:16:33.330Z,5.95
2019-05-06T21:19:04.524Z,5.93
2019-05-06T21:21:35.439Z,5.92
2019-05-06T21:24:06.562Z,5.94
2019-05-06T21:26:37.524Z,6.02
2019-05-06T21:29:08.701Z,6.04
2019-05-06T21:31:39.671Z,6.11
2019-05-06T21:34:09.970Z,6.15
2019-05-06T21:36:42.199Z,6.20
2019-05-06T21:39:13.499Z,6.20
2019-05-06T21:41:45.062Z,6.20
2019-05-06T21:44:16.028Z,6.21
2019-05-06T21:46:47.251Z,6.20
2019-05-06T21:49:18.400Z,6.22
2019-05-06T21:51:49.556Z,6.30
2019-05-06T21:54:20.522Z,6.31
2019-05-06T21:56:53.211Z,6.29
2019-05-06T21:59:26.316Z,6.25
2019-05-06T22:01:59.489Z,6.20
2019-05-06T22:04:32.562Z,6.10
2019-05-06T22:07:03.027Z,6.00
2019-05-06T22:09:34.305Z,5.92
2019-05-06T22:12:05.321Z,5.86
2019-05-06T22:14:36.444Z,5.79
2019-05-06T22:17:08.781Z,5.76
2019-05-06T22:19:39.962Z,5.69
2019-05-06T22:22:15.497Z,5.61
2019-05-06T22:24:47.441Z,5.60
2019-05-06T22:27:18.969Z,5.57
2019-05-06T22:29:52.272Z,5.51
2019-05-06T22:32:23.298Z,5.44
2019-05-06T22:34:54.516Z,5.39
2019-05-06T22:37:25.488Z,5.38
2019-05-06T22:39:56.826Z,5.26
2019-05-06T22:42:27.721Z,5.12
2019-05-06T22:44:57.947Z,5.05
2019-05-06T22:47:28.981Z,4.90
2019-05-06T22:50:02.054Z,4.81
2019-05-06T22:52:32.817Z,4.70
2019-05-06T22:55:04.721Z,4.63
2019-05-06T22:57:35.967Z,4.56
2019-05-06T23:00:15.033Z,4.49
2019-05-06T23:02:56.887Z,4.43
2019-05-06T23:05:27.954Z,4.49
2019-05-06T23:07:59.119Z,4.45
2019-05-06T23:10:30.182Z,4.35
2019-05-06T23:13:03.108Z,4.23
2019-05-06T23:15:34.294Z,4.19
2019-05-06T23:18:05.533Z,4.28
2019-05-06T23:20:36.495Z,4.30
2019-05-06T23:23:06.622Z,4.27
2019-05-06T23:25:37.701Z,4.33
2019-05-06T23:28:08.653Z,4.26
2019-05-06T23:30:39.816Z,4.17
2019-05-06T23:33:11.784Z,4.03
2019-05-06T23:35:43.979Z,3.88
2019-05-06T23:38:52.416Z,3.78
2019-05-06T23:42:00.152Z,3.69
2019-05-06T23:45:07.421Z,3.55
2019-05-06T23:48:15.341Z,3.41
2019-05-06T23:51:22.843Z,3.34
2019-05-06T23:54:32.760Z,3.22
2019-05-06T23:57:02.842Z,3.06
2019-05-06T23:59:34.143Z,2.94
